Home > Products > Valid Products > TAF

000
FTUS45 KPUB 252323
TAFALS
TAF
KALS 252323Z 2600/2624 21010G20KT P6SM SKC
     FM260100 20007KT P6SM FEW150
     FM261500 23010G20KT P6SM FEW050 SCT150=



000
FTUS45 KPUB 252323
TAFCOS
TAF
KCOS 252323Z 2600/2624 17012KT P6SM SKC
     FM260200 VRB06KT P6SM SKC
     FM260800 35008KT P6SM SCT150
     FM261500 22010G20KT P6SM SCT150=



000
FTUS45 KPUB 252323
TAFPUB
TAF
KPUB 252323Z 2600/2624 16009KT P6SM SKC
     FM260200 32007KT P6SM SKC
     FM260900 28010KT P6SM FEW200
     FM261400 26010G20KT P6SM SCT200=



000
FTUS45 KPUB 251741
TAFALS
TAF
KALS 251741Z 2518/2618 22008KT P6SM SKC
     FM260100 20007KT P6SM FEW150
     FM261500 23010KT P6SM FEW050 SCT150=



000
FTUS45 KPUB 251741
TAFCOS
TAF
KCOS 251741Z 2518/2618 16010KT P6SM SKC
     FM260200 02007KT P6SM SKC
     FM260800 36008KT P6SM SCT200
     FM261500 30010KT P6SM SCT150=



000
FTUS45 KPUB 251741
TAFPUB
TAF
KPUB 251741Z 2518/2618 VRB06KT P6SM SKC
     FM252100 13010KT P6SM SKC
     FM260200 34007KT P6SM SKC
     FM260900 30010KT P6SM FEW200
     FM261400 27012KT P6SM SCT200=



000
FTUS45 KPUB 251741
TAFCOS
TAF
KCOS 251741Z 2518/2618 16010KT P6SM SKC
     FM260200 02007KT P6SM SKC
     FM260800 36008KT P6SM SCT200
     FM261500 30010KT P6SM SCT150=



000
FTUS45 KPUB 251741
TAFPUB
TAF
KPUB 251741Z 2518/2618 VRB06KT P6SM SKC
     FM252100 13010KT P6SM SKC
     FM260200 34007KT P6SM SKC
     FM260900 30010KT P6SM FEW200
     FM261400 27012KT P6SM SCT200=



000
FTUS45 KPUB 251741
TAFALS
TAF
KALS 251741Z 2518/2618 22008KT P6SM SKC
     FM260100 20007KT P6SM FEW150
     FM261500 23010KT P6SM FEW050 SCT150=



000
FTUS45 KPUB 251739
TAFALS
TAF
KALS 251739Z 2518/2618 22008KT P6SM SKC
     FM260100 20007KT P6SM FEW150
     FM261500 23010KT P6SM FEW050 SCT150=



000
FTUS45 KPUB 251739
TAFALS
TAF
KALS 251739Z 2518/2618 22008KT P6SM SKC
     FM260100 20007KT P6SM FEW150
     FM261500 23010KT P6SM FEW050 SCT150=



000
FTUS45 KPUB 251739
TAFPUB
TAF
KPUB 251739Z 2518/2618 VRB06KT P6SM SKC
     FM252100 13010KT P6SM SKC
     FM260200 34007KT P6SM SKC
     FM260900 30010KT P6SM FEW200
     FM261400 27012KT P6SM SCT200=



000
FTUS45 KPUB 251739
TAFCOS
TAF
KCOS 251739Z 2518/2618 16010KT P6SM SKC
     FM260200 02007KT P6SM SKC
     FM260800 36008KT P6SM SCT200
     FM261500 30010KT P6SM SCT050 SCT150=



000
FTUS45 KPUB 251739
TAFPUB
TAF
KPUB 251739Z 2518/2618 VRB06KT P6SM SKC
     FM252100 13010KT P6SM SKC
     FM260200 34007KT P6SM SKC
     FM260900 30010KT P6SM FEW200
     FM261400 27012KT P6SM SCT200=



000
FTUS45 KPUB 251739
TAFCOS
TAF
KCOS 251739Z 2518/2618 16010KT P6SM SKC
     FM260200 02007KT P6SM SKC
     FM260800 36008KT P6SM SCT200
     FM261500 30010KT P6SM SCT050 SCT150=



000
FTUS45 KPUB 251120
TAFPUB
TAF
KPUB 251120Z 2512/2612 25008KT P6SM SKC
     FM252000 12007KT P6SM SKC
     FM260200 34007KT P6SM SKC
     FM260900 30010KT P6SM FEW200=



000
FTUS45 KPUB 251120
TAFALS
TAF
KALS 251120Z 2512/2612 VRB05KT P6SM SKC
     FM252000 23007KT P6SM SKC
     FM260300 VRB05KT P6SM SCT200=



000
FTUS45 KPUB 251120
TAFCOS
TAF
KCOS 251120Z 2512/2612 36009KT P6SM SKC
     FM251700 16011KT P6SM SKC
     FM260200 02007KT P6SM SKC
     FM260900 34010KT P6SM SCT200=



000
FTUS45 KPUB 251120
TAFPUB
TAF
KPUB 251120Z 2512/2612 25008KT P6SM SKC
     FM252000 12007KT P6SM SKC
     FM260200 34007KT P6SM SKC
     FM260900 30010KT P6SM FEW200=



000
FTUS45 KPUB 251120
TAFALS
TAF
KALS 251120Z 2512/2612 VRB05KT P6SM SKC
     FM252000 23007KT P6SM SKC
     FM260300 VRB05KT P6SM SCT200=



000
FTUS45 KPUB 251120
TAFCOS
TAF
KCOS 251120Z 2512/2612 36009KT P6SM SKC
     FM251700 16011KT P6SM SKC
     FM260200 02007KT P6SM SKC
     FM260900 34010KT P6SM SCT200=



000
FTUS45 KPUB 250526
TAFCOS
TAF
KCOS 250526Z 2506/2606 01006KT P6SM SKC
     FM251700 16009KT P6SM FEW250
     FM260200 02007KT P6SM FEW250=



000
FTUS45 KPUB 250526
TAFALS
TAF
KALS 250526Z 2506/2606 VRB05KT P6SM SKC
     FM252000 24007KT P6SM FEW250
     FM260200 VRB05KT P6SM FEW250=



000
FTUS45 KPUB 250526
TAFPUB
TAF
KPUB 250526Z 2506/2606 VRB06KT P6SM SKC
     FM252000 12007KT P6SM FEW250
     FM260200 VRB06KT P6SM FEW250=



000
FTUS45 KPUB 242324
TAFCOS
TAF
KCOS 242324Z 2500/2524 15009KT P6SM SKC
     FM250200 01006KT P6SM SKC
     FM251700 16009KT P6SM FEW250=



000
FTUS45 KPUB 242324
TAFALS
TAF
KALS 242324Z 2500/2524 VRB05KT P6SM SKC
     FM252000 24007KT P6SM FEW250=



000
FTUS45 KPUB 242324
TAFPUB
TAF
KPUB 242324Z 2500/2524 12006KT P6SM SCT250
     FM250200 VRB04KT P6SM SKC
     FM252000 12007KT P6SM FEW250=



000
FTUS45 KPUB 241720
TAFPUB
TAF
KPUB 241720Z 2418/2518 30008KT P6SM SCT250
     FM242000 12006KT P6SM SCT250
     FM250200 VRB04KT P6SM SKC=



000
FTUS45 KPUB 241720
TAFCOS
TAF
KCOS 241720Z 2418/2518 13009KT P6SM BKN250
     FM242100 15008KT P6SM SCT250
     FM250200 01006KT P6SM SKC=



000
FTUS45 KPUB 241720
TAFALS
TAF
KALS 241720Z 2418/2518 VRB05KT P6SM SKC
     FM242000 23006KT P6SM SKC
     FM250200 VRB05KT P6SM SKC=



000
FTUS45 KPUB 241120
TAFALS
TAF
KALS 241120Z 2412/2512 VRB05KT P6SM SKC
     FM242000 23006KT P6SM SKC
     FM250200 VRB05KT P6SM SKC=



000
FTUS45 KPUB 241120
TAFCOS
TAF
KCOS 241120Z 2412/2512 02006KT P6SM BKN200
     FM241800 13009KT P6SM FEW200
     FM250200 01006KT P6SM SKC=



000
FTUS45 KPUB 241120
TAFPUB
TAF
KPUB 241120Z 2412/2512 VRB04KT P6SM SKC
     FM242000 12006KT P6SM SKC
     FM250200 VRB04KT P6SM SKC=



000
FTUS45 KPUB 240520
TAFCOS
TAF
KCOS 240520Z 2406/2506 VRB06KT P6SM FEW120 SCT200
     FM241800 13009KT P6SM FEW120 FEW180
     FM250200 VRB06KT P6SM FEW120 FEW180=



000
FTUS45 KPUB 240520
TAFPUB
TAF
KPUB 240520Z 2406/2506 VRB06KT P6SM FEW120 FEW200=



000
FTUS45 KPUB 240520
TAFALS
TAF
KALS 240520Z 2406/2506 VRB05KT P6SM FEW150=



000
FTUS45 KPUB 232320
TAFALS
TAF
KALS 232320Z 2400/2424 VRB05KT P6SM FEW150=



000
FTUS45 KPUB 232320
TAFPUB
TAF
KPUB 232320Z 2400/2424 11008KT P6SM FEW110 FEW200
     FM240300 VRB06KT P6SM FEW120 FEW200=



000
FTUS45 KPUB 232320
TAFCOS
TAF
KCOS 232320Z 2400/2424 16007KT P6SM FEW090 FEW180
     FM240300 VRB06KT P6SM FEW110 FEW180=



000
FTUS45 KPUB 231725
TAFALS
TAF
KALS 231725Z 2318/2418 VRB04KT P6SM SKC
     FM232100 20006KT P6SM SKC
     FM240300 VRB04KT P6SM FEW200=



000
FTUS45 KPUB 231725
TAFPUB
TAF
KPUB 231725Z 2318/2418 VRB06KT P6SM FEW200
     FM232000 13008KT P6SM FEW200
     FM240300 VRB06KT P6SM FEW200=



000
FTUS45 KPUB 231725
TAFCOS
TAF
KCOS 231725Z 2318/2418 17009KT P6SM FEW200
     FM240100 12006KT P6SM FEW120 FEW200
     FM240600 01007KT P6SM FEW200
     FM241600 16008KT P6SM FEW200=



000
FTUS45 KPUB 231120
TAFCOS
TAF
KCOS 231120Z 2312/2412 01009KT P6SM FEW250
     FM231600 17009KT P6SM FEW200
     FM240200 12006KT P6SM FEW130 FEW200
     FM240600 02006KT P6SM FEW200=



000
FTUS45 KPUB 231120
TAFPUB
TAF
KPUB 231120Z 2312/2412 VRB04KT P6SM SKC
     FM231900 13007KT P6SM SKC
     FM240200 VRB05KT P6SM FEW200=



000
FTUS45 KPUB 231120
TAFALS
TAF
KALS 231120Z 2312/2412 VRB04KT P6SM SKC
     FM232100 23006KT P6SM SKC
     FM240300 VRB04KT P6SM SKC=



000
FTUS45 KPUB 230521
TAFPUB
TAF
KPUB 230521Z 2306/2406 VRB06KT P6SM FEW200
     FM231800 12007KT P6SM FEW200
     FM240200 VRB05KT P6SM FEW200=



000
FTUS45 KPUB 230521
TAFCOS
TAF
KCOS 230521Z 2306/2406 35007KT P6SM FEW200
     FM231600 17007KT P6SM FEW200
     FM240200 34006KT P6SM FEW200=



000
FTUS45 KPUB 230521
TAFALS
TAF
KALS 230521Z 2306/2406 VRB06KT P6SM FEW200=



    US Dept of Commerce
    National Oceanic and Atmospheric Administration
    National Weather Service
    1325 East West Highway
    Silver Spring, MD 20910
    Page Author: NWS Internet Services Team
Disclaimer
Information Quality
Credits
Glossary
Privacy Policy
Freedom of Information Act (FOIA)
About Us
Career Opportunities